sensor_id;sensor_type;location;lat;lon;timestamp;temperature;humidity
6098;DHT22;3077;50.922;6.584;2023-06-22T00:01:09;24.00;83.70
6098;DHT22;3077;50.922;6.584;2023-06-22T00:03:34;24.00;84.40
6098;DHT22;3077;50.922;6.584;2023-06-22T00:06:00;24.00;84.70
6098;DHT22;3077;50.922;6.584;2023-06-22T00:08:25;24.10;84.90
6098;DHT22;3077;50.922;6.584;2023-06-22T00:10:51;24.00;84.70
6098;DHT22;3077;50.922;6.584;2023-06-22T00:13:17;24.00;85.20
6098;DHT22;3077;50.922;6.584;2023-06-22T00:15:43;24.00;85.70
6098;DHT22;3077;50.922;6.584;2023-06-22T00:18:10;24.00;85.90
6098;DHT22;3077;50.922;6.584;2023-06-22T00:20:36;24.00;85.90
6098;DHT22;3077;50.922;6.584;2023-06-22T00:23:03;24.00;85.50
6098;DHT22;3077;50.922;6.584;2023-06-22T00:25:38;24.00;85.40
6098;DHT22;3077;50.922;6.584;2023-06-22T00:28:07;24.00;85.00
6098;DHT22;3077;50.922;6.584;2023-06-22T00:30:33;24.00;84.70
6098;DHT22;3077;50.922;6.584;2023-06-22T00:32:59;24.00;85.00
6098;DHT22;3077;50.922;6.584;2023-06-22T00:35:26;24.00;85.90
6098;DHT22;3077;50.922;6.584;2023-06-22T00:37:58;24.00;86.30
6098;DHT22;3077;50.922;6.584;2023-06-22T00:40:30;24.00;86.30
6098;DHT22;3077;50.922;6.584;2023-06-22T00:42:56;24.00;85.80
6098;DHT22;3077;50.922;6.584;2023-06-22T00:45:23;24.00;85.90
6098;DHT22;3077;50.922;6.584;2023-06-22T00:47:53;24.00;86.20
6098;DHT22;3077;50.922;6.584;2023-06-22T00:50:21;24.00;87.40
6098;DHT22;3077;50.922;6.584;2023-06-22T00:52:56;23.90;86.80
6098;DHT22;3077;50.922;6.584;2023-06-22T00:55:22;23.90;87.90
6098;DHT22;3077;50.922;6.584;2023-06-22T00:57:48;23.90;89.00
6098;DHT22;3077;50.922;6.584;2023-06-22T01:00:18;23.90;89.70
6098;DHT22;3077;50.922;6.584;2023-06-22T01:02:45;23.80;90.00
6098;DHT22;3077;50.922;6.584;2023-06-22T01:05:15;23.80;90.30
6098;DHT22;3077;50.922;6.584;2023-06-22T01:13:00;23.70;91.30
6098;DHT22;3077;50.922;6.584;2023-06-22T01:15:59;23.80;91.80
6098;DHT22;3077;50.922;6.584;2023-06-22T01:18:30;23.70;92.10
6098;DHT22;3077;50.922;6.584;2023-06-22T01:20:56;23.70;92.60
6098;DHT22;3077;50.922;6.584;2023-06-22T01:23:49;23.60;92.90
6098;DHT22;3077;50.922;6.584;2023-06-22T01:26:38;23.70;93.40
6098;DHT22;3077;50.922;6.584;2023-06-22T01:29:08;23.70;93.70
6098;DHT22;3077;50.922;6.584;2023-06-22T01:31:38;23.60;94.10
6098;DHT22;3077;50.922;6.584;2023-06-22T01:34:06;23.60;94.40
6098;DHT22;3077;50.922;6.584;2023-06-22T01:36:33;23.50;94.60
6098;DHT22;3077;50.922;6.584;2023-06-22T01:38:59;23.50;95.40
6098;DHT22;3077;50.922;6.584;2023-06-22T01:41:26;23.50;95.70
6098;DHT22;3077;50.922;6.584;2023-06-22T01:43:53;23.50;96.10
6098;DHT22;3077;50.922;6.584;2023-06-22T01:46:20;23.50;96.90
6098;DHT22;3077;50.922;6.584;2023-06-22T01:48:46;23.40;96.90
6098;DHT22;3077;50.922;6.584;2023-06-22T01:51:13;23.40;97.50
6098;DHT22;3077;50.922;6.584;2023-06-22T01:53:39;23.40;97.80
6098;DHT22;3077;50.922;6.584;2023-06-22T01:56:04;23.30;98.00
6098;DHT22;3077;50.922;6.584;2023-06-22T01:58:31;23.30;98.10
6098;DHT22;3077;50.922;6.584;2023-06-22T02:01:09;23.30;98.30
6098;DHT22;3077;50.922;6.584;2023-06-22T02:03:41;23.30;98.90
6098;DHT22;3077;50.922;6.584;2023-06-22T02:06:10;23.30;98.60
6098;DHT22;3077;50.922;6.584;2023-06-22T02:08:41;23.30;98.70
6098;DHT22;3077;50.922;6.584;2023-06-22T02:11:10;23.20;99.00
6098;DHT22;3077;50.922;6.584;2023-06-22T02:13:37;23.20;99.10
6098;DHT22;3077;50.922;6.584;2023-06-22T02:16:11;23.20;99.00
6098;DHT22;3077;50.922;6.584;2023-06-22T02:18:37;23.10;99.30
6098;DHT22;3077;50.922;6.584;2023-06-22T02:21:03;23.10;99.90
6098;DHT22;3077;50.922;6.584;2023-06-22T02:23:28;23.10;99.90
6098;DHT22;3077;50.922;6.584;2023-06-22T02:25:54;23.00;99.90
6098;DHT22;3077;50.922;6.584;2023-06-22T02:28:19;23.00;99.90
6098;DHT22;3077;50.922;6.584;2023-06-22T02:30:45;23.00;99.90
6098;DHT22;3077;50.922;6.584;2023-06-22T02:33:11;23.00;99.90
6098;DHT22;3077;50.922;6.584;2023-06-22T02:35:37;23.00;99.90
6098;DHT22;3077;50.922;6.584;2023-06-22T02:38:04;22.90;99.90
6098;DHT22;3077;50.922;6.584;2023-06-22T02:40:30;23.00;99.90
6098;DHT22;3077;50.922;6.584;2023-06-22T02:42:56;22.90;99.90
6098;DHT22;3077;50.922;6.584;2023-06-22T02:45:27;22.80;99.90
6098;DHT22;3077;50.922;6.584;2023-06-22T02:47:53;22.90;99.90
6098;DHT22;3077;50.922;6.584;2023-06-22T02:50:18;22.90;99.90
6098;DHT22;3077;50.922;6.584;2023-06-22T02:52:44;22.90;99.90
6098;DHT22;3077;50.922;6.584;2023-06-22T02:55:09;22.90;99.90
6098;DHT22;3077;50.922;6.584;2023-06-22T02:57:35;22.90;99.90
6098;DHT22;3077;50.922;6.584;2023-06-22T03:00:03;22.90;99.90
6098;DHT22;3077;50.922;6.584;2023-06-22T03:02:40;22.90;99.90
6098;DHT22;3077;50.922;6.584;2023-06-22T03:05:06;22.80;99.90
6098;DHT22;3077;50.922;6.584;2023-06-22T03:07:31;22.80;99.90
6098;DHT22;3077;50.922;6.584;2023-06-22T03:09:57;22.80;99.90
6098;DHT22;3077;50.922;6.584;2023-06-22T03:12:23;22.80;99.90
6098;DHT22;3077;50.922;6.584;2023-06-22T03:14:48;22.80;99.90
6098;DHT22;3077;50.922;6.584;2023-06-22T03:17:14;22.80;99.90
6098;DHT22;3077;50.922;6.584;2023-06-22T03:19:39;22.80;99.90
6098;DHT22;3077;50.922;6.584;2023-06-22T03:22:05;22.70;99.90
6098;DHT22;3077;50.922;6.584;2023-06-22T03:24:32;22.70;99.90
6098;DHT22;3077;50.922;6.584;2023-06-22T03:26:59;22.70;99.90
6098;DHT22;3077;50.922;6.584;2023-06-22T03:29:25;22.70;99.90
6098;DHT22;3077;50.922;6.584;2023-06-22T03:31:51;22.70;99.90
6098;DHT22;3077;50.922;6.584;2023-06-22T03:34:16;22.80;99.90
6098;DHT22;3077;50.922;6.584;2023-06-22T03:36:42;22.70;99.90
6098;DHT22;3077;50.922;6.584;2023-06-22T03:39:10;22.70;99.90
6098;DHT22;3077;50.922;6.584;2023-06-22T03:41:36;22.70;99.90
6098;DHT22;3077;50.922;6.584;2023-06-22T03:44:01;22.80;99.90
6098;DHT22;3077;50.922;6.584;2023-06-22T03:46:27;22.80;99.90
6098;DHT22;3077;50.922;6.584;2023-06-22T03:48:53;22.80;99.90
6098;DHT22;3077;50.922;6.584;2023-06-22T03:51:18;22.70;99.90
6098;DHT22;3077;50.922;6.584;2023-06-22T03:53:44;22.70;99.90
6098;DHT22;3077;50.922;6.584;2023-06-22T03:56:09;22.70;99.90
6098;DHT22;3077;50.922;6.584;2023-06-22T03:58:35;22.70;99.90
6098;DHT22;3077;50.922;6.584;2023-06-22T04:01:02;22.70;99.90
6098;DHT22;3077;50.922;6.584;2023-06-22T04:03:27;22.70;99.90
6098;DHT22;3077;50.922;6.584;2023-06-22T04:05:53;22.70;99.90
6098;DHT22;3077;50.922;6.584;2023-06-22T04:08:19;22.60;99.90
6098;DHT22;3077;50.922;6.584;2023-06-22T04:10:44;22.60;99.90
6098;DHT22;3077;50.922;6.584;2023-06-22T04:13:10;22.40;99.90
6098;DHT22;3077;50.922;6.584;2023-06-22T04:15:36;22.10;99.90
6098;DHT22;3077;50.922;6.584;2023-06-22T04:18:02;21.90;99.90
6098;DHT22;3077;50.922;6.584;2023-06-22T04:20:27;21.90;99.90
6098;DHT22;3077;50.922;6.584;2023-06-22T04:22:54;22.00;99.90
6098;DHT22;3077;50.922;6.584;2023-06-22T04:25:20;22.10;99.90
6098;DHT22;3077;50.922;6.584;2023-06-22T04:27:46;22.10;99.90
6098;DHT22;3077;50.922;6.584;2023-06-22T04:30:12;22.20;99.90
6098;DHT22;3077;50.922;6.584;2023-06-22T04:32:40;22.30;99.90
6098;DHT22;3077;50.922;6.584;2023-06-22T04:35:06;22.30;99.90
6098;DHT22;3077;50.922;6.584;2023-06-22T04:37:33;22.20;99.90
6098;DHT22;3077;50.922;6.584;2023-06-22T04:39:59;22.30;99.90
6098;DHT22;3077;50.922;6.584;2023-06-22T04:42:27;22.40;99.90
6098;DHT22;3077;50.922;6.584;2023-06-22T04:44:53;22.50;99.90
6098;DHT22;3077;50.922;6.584;2023-06-22T04:47:19;22.50;99.90
6098;DHT22;3077;50.922;6.584;2023-06-22T04:49:45;22.60;99.90
6098;DHT22;3077;50.922;6.584;2023-06-22T04:52:12;22.70;99.90
6098;DHT22;3077;50.922;6.584;2023-06-22T04:54:39;22.70;99.90
6098;DHT22;3077;50.922;6.584;2023-06-22T04:57:07;22.70;99.90
6098;DHT22;3077;50.922;6.584;2023-06-22T04:59:36;22.80;99.90
6098;DHT22;3077;50.922;6.584;2023-06-22T05:02:04;22.80;99.90
6098;DHT22;3077;50.922;6.584;2023-06-22T05:04:31;22.80;99.90
6098;DHT22;3077;50.922;6.584;2023-06-22T05:06:57;22.80;99.90
6098;DHT22;3077;50.922;6.584;2023-06-22T05:09:24;22.90;99.90
6098;DHT22;3077;50.922;6.584;2023-06-22T05:11:52;22.80;99.90
6098;DHT22;3077;50.922;6.584;2023-06-22T05:14:18;22.90;99.90
6098;DHT22;3077;50.922;6.584;2023-06-22T05:16:44;22.90;99.90
6098;DHT22;3077;50.922;6.584;2023-06-22T05:19:10;22.80;99.90
6098;DHT22;3077;50.922;6.584;2023-06-22T05:21:36;22.70;99.90
6098;DHT22;3077;50.922;6.584;2023-06-22T05:24:02;22.70;99.90
6098;DHT22;3077;50.922;6.584;2023-06-22T05:26:32;22.70;99.90
6098;DHT22;3077;50.922;6.584;2023-06-22T05:28:59;22.70;99.90
6098;DHT22;3077;50.922;6.584;2023-06-22T05:31:26;22.70;99.90
6098;DHT22;3077;50.922;6.584;2023-06-22T05:33:52;22.80;99.90
6098;DHT22;3077;50.922;6.584;2023-06-22T05:36:18;22.80;99.90
6098;DHT22;3077;50.922;6.584;2023-06-22T05:38:50;22.80;99.90
6098;DHT22;3077;50.922;6.584;2023-06-22T05:41:16;22.80;99.90
6098;DHT22;3077;50.922;6.584;2023-06-22T05:43:42;22.70;99.90
6098;DHT22;3077;50.922;6.584;2023-06-22T05:46:07;22.80;99.90
6098;DHT22;3077;50.922;6.584;2023-06-22T05:48:33;22.80;99.90
6098;DHT22;3077;50.922;6.584;2023-06-22T05:50:59;22.80;99.90
6098;DHT22;3077;50.922;6.584;2023-06-22T05:53:24;22.80;99.90
6098;DHT22;3077;50.922;6.584;2023-06-22T05:55:50;22.80;99.90
6098;DHT22;3077;50.922;6.584;2023-06-22T05:58:16;22.90;99.90
6098;DHT22;3077;50.922;6.584;2023-06-22T06:00:41;23.00;99.90
6098;DHT22;3077;50.922;6.584;2023-06-22T06:03:09;23.00;99.90
6098;DHT22;3077;50.922;6.584;2023-06-22T06:05:35;23.00;99.90
6098;DHT22;3077;50.922;6.584;2023-06-22T06:08:02;22.80;99.90
6098;DHT22;3077;50.922;6.584;2023-06-22T06:10:30;22.70;99.90
6098;DHT22;3077;50.922;6.584;2023-06-22T06:12:56;22.80;99.90
6098;DHT22;3077;50.922;6.584;2023-06-22T06:15:22;22.90;99.90
6098;DHT22;3077;50.922;6.584;2023-06-22T06:17:52;23.10;99.90
6098;DHT22;3077;50.922;6.584;2023-06-22T06:20:20;23.20;99.90
6098;DHT22;3077;50.922;6.584;2023-06-22T06:22:46;23.30;99.90
6098;DHT22;3077;50.922;6.584;2023-06-22T06:25:12;23.40;99.90
6098;DHT22;3077;50.922;6.584;2023-06-22T06:27:49;23.60;99.90
6098;DHT22;3077;50.922;6.584;2023-06-22T06:30:17;23.70;99.90
6098;DHT22;3077;50.922;6.584;2023-06-22T06:32:44;23.80;99.90
6098;DHT22;3077;50.922;6.584;2023-06-22T06:35:11;23.90;99.90
6098;DHT22;3077;50.922;6.584;2023-06-22T06:37:38;24.00;99.90
6098;DHT22;3077;50.922;6.584;2023-06-22T06:40:09;24.10;99.90
6098;DHT22;3077;50.922;6.584;2023-06-22T06:42:37;24.30;99.90
6098;DHT22;3077;50.922;6.584;2023-06-22T06:45:06;24.30;99.90
6098;DHT22;3077;50.922;6.584;2023-06-22T06:47:32;24.40;99.90
6098;DHT22;3077;50.922;6.584;2023-06-22T06:49:57;24.50;99.90
6098;DHT22;3077;50.922;6.584;2023-06-22T06:52:23;24.60;99.90
6098;DHT22;3077;50.922;6.584;2023-06-22T06:54:48;24.70;99.90
6098;DHT22;3077;50.922;6.584;2023-06-22T06:57:14;24.50;99.90
6098;DHT22;3077;50.922;6.584;2023-06-22T06:59:40;24.20;99.90
6098;DHT22;3077;50.922;6.584;2023-06-22T07:02:06;24.20;99.90
6098;DHT22;3077;50.922;6.584;2023-06-22T07:04:32;24.40;99.90
6098;DHT22;3077;50.922;6.584;2023-06-22T07:07:01;24.50;99.90
6098;DHT22;3077;50.922;6.584;2023-06-22T07:09:26;24.50;99.90
6098;DHT22;3077;50.922;6.584;2023-06-22T07:11:52;24.60;99.90
6098;DHT22;3077;50.922;6.584;2023-06-22T07:14:17;24.60;99.90
6098;DHT22;3077;50.922;6.584;2023-06-22T07:16:43;24.80;99.90
6098;DHT22;3077;50.922;6.584;2023-06-22T07:19:11;24.80;99.90
6098;DHT22;3077;50.922;6.584;2023-06-22T07:21:37;24.70;99.90
6098;DHT22;3077;50.922;6.584;2023-06-22T07:24:02;24.60;99.90
6098;DHT22;3077;50.922;6.584;2023-06-22T07:26:28;24.60;99.90
6098;DHT22;3077;50.922;6.584;2023-06-22T07:28:54;24.80;99.90
6098;DHT22;3077;50.922;6.584;2023-06-22T07:31:19;24.90;99.90
6098;DHT22;3077;50.922;6.584;2023-06-22T07:33:45;25.00;99.90
6098;DHT22;3077;50.922;6.584;2023-06-22T07:36:10;25.10;99.90
6098;DHT22;3077;50.922;6.584;2023-06-22T07:38:36;25.10;99.90
6098;DHT22;3077;50.922;6.584;2023-06-22T07:41:02;25.30;99.90
6098;DHT22;3077;50.922;6.584;2023-06-22T07:43:31;25.50;99.90
6098;DHT22;3077;50.922;6.584;2023-06-22T07:45:58;25.70;99.90
6098;DHT22;3077;50.922;6.584;2023-06-22T07:48:24;25.90;99.90
6098;DHT22;3077;50.922;6.584;2023-06-22T07:50:50;26.00;99.90
6098;DHT22;3077;50.922;6.584;2023-06-22T07:53:15;25.90;99.90
6098;DHT22;3077;50.922;6.584;2023-06-22T07:55:41;26.00;99.90
6098;DHT22;3077;50.922;6.584;2023-06-22T07:58:06;26.10;99.90
6098;DHT22;3077;50.922;6.584;2023-06-22T08:00:33;26.20;99.90
6098;DHT22;3077;50.922;6.584;2023-06-22T08:02:59;26.40;99.90
6098;DHT22;3077;50.922;6.584;2023-06-22T08:05:24;26.50;99.90
6098;DHT22;3077;50.922;6.584;2023-06-22T08:07:50;26.70;99.90
6098;DHT22;3077;50.922;6.584;2023-06-22T08:10:16;26.90;99.90
6098;DHT22;3077;50.922;6.584;2023-06-22T08:12:42;27.00;99.90
6098;DHT22;3077;50.922;6.584;2023-06-22T08:15:09;27.10;99.90
6098;DHT22;3077;50.922;6.584;2023-06-22T08:17:39;27.10;99.90
6098;DHT22;3077;50.922;6.584;2023-06-22T08:20:06;27.20;99.90
6098;DHT22;3077;50.922;6.584;2023-06-22T08:22:38;27.30;99.90
6098;DHT22;3077;50.922;6.584;2023-06-22T08:25:04;27.40;99.90
6098;DHT22;3077;50.922;6.584;2023-06-22T08:27:30;27.50;99.90
6098;DHT22;3077;50.922;6.584;2023-06-22T08:29:59;27.60;99.90
6098;DHT22;3077;50.922;6.584;2023-06-22T08:35:19;27.70;99.90
6098;DHT22;3077;50.922;6.584;2023-06-22T08:37:45;27.90;99.90
6098;DHT22;3077;50.922;6.584;2023-06-22T08:40:19;28.10;99.90
6098;DHT22;3077;50.922;6.584;2023-06-22T08:42:46;28.30;99.90
6098;DHT22;3077;50.922;6.584;2023-06-22T08:45:12;28.30;99.90
6098;DHT22;3077;50.922;6.584;2023-06-22T08:48:11;28.50;99.90
6098;DHT22;3077;50.922;6.584;2023-06-22T08:50:56;28.50;99.90
6098;DHT22;3077;50.922;6.584;2023-06-22T08:53:21;28.60;99.90
6098;DHT22;3077;50.922;6.584;2023-06-22T08:55:47;28.70;99.90
6098;DHT22;3077;50.922;6.584;2023-06-22T08:58:13;28.80;99.90
6098;DHT22;3077;50.922;6.584;2023-06-22T09:00:38;29.00;99.90
6098;DHT22;3077;50.922;6.584;2023-06-22T09:03:04;29.00;99.90
6098;DHT22;3077;50.922;6.584;2023-06-22T09:05:30;29.00;99.90
6098;DHT22;3077;50.922;6.584;2023-06-22T09:07:58;29.10;99.90
6098;DHT22;3077;50.922;6.584;2023-06-22T09:10:24;29.20;99.90
6098;DHT22;3077;50.922;6.584;2023-06-22T09:12:50;29.10;99.90
6098;DHT22;3077;50.922;6.584;2023-06-22T09:15:16;29.30;99.90
6098;DHT22;3077;50.922;6.584;2023-06-22T09:17:41;29.40;99.90
6098;DHT22;3077;50.922;6.584;2023-06-22T09:20:08;29.40;99.90
6098;DHT22;3077;50.922;6.584;2023-06-22T09:22:36;29.40;99.90
6098;DHT22;3077;50.922;6.584;2023-06-22T09:25:01;29.50;99.90
6098;DHT22;3077;50.922;6.584;2023-06-22T09:27:28;29.60;99.90
6098;DHT22;3077;50.922;6.584;2023-06-22T09:29:54;29.60;99.90
6098;DHT22;3077;50.922;6.584;2023-06-22T09:32:19;29.70;99.90
6098;DHT22;3077;50.922;6.584;2023-06-22T09:34:45;29.90;99.90
6098;DHT22;3077;50.922;6.584;2023-06-22T09:37:11;30.10;99.90
6098;DHT22;3077;50.922;6.584;2023-06-22T09:39:36;30.30;99.90
6098;DHT22;3077;50.922;6.584;2023-06-22T09:42:02;30.40;99.90
6098;DHT22;3077;50.922;6.584;2023-06-22T09:44:28;30.50;99.90
6098;DHT22;3077;50.922;6.584;2023-06-22T09:46:53;30.40;99.90
6098;DHT22;3077;50.922;6.584;2023-06-22T09:49:19;30.50;99.90
6098;DHT22;3077;50.922;6.584;2023-06-22T09:51:45;30.50;99.90
6098;DHT22;3077;50.922;6.584;2023-06-22T09:54:10;30.40;98.50
6098;DHT22;3077;50.922;6.584;2023-06-22T09:56:36;30.00;98.70
6098;DHT22;3077;50.922;6.584;2023-06-22T09:59:03;29.70;99.40
6098;DHT22;3077;50.922;6.584;2023-06-22T10:01:28;29.50;99.80
6098;DHT22;3077;50.922;6.584;2023-06-22T10:03:56;29.30;99.90
6098;DHT22;3077;50.922;6.584;2023-06-22T10:06:22;28.90;99.90
6098;DHT22;3077;50.922;6.584;2023-06-22T10:08:48;28.70;99.90
6098;DHT22;3077;50.922;6.584;2023-06-22T10:11:14;28.50;99.90
6098;DHT22;3077;50.922;6.584;2023-06-22T10:13:39;28.40;99.90
6098;DHT22;3077;50.922;6.584;2023-06-22T10:16:05;28.30;99.90
6098;DHT22;3077;50.922;6.584;2023-06-22T10:18:30;28.00;99.90
6098;DHT22;3077;50.922;6.584;2023-06-22T10:20:56;27.70;99.90
6098;DHT22;3077;50.922;6.584;2023-06-22T10:23:22;27.50;99.90
6098;DHT22;3077;50.922;6.584;2023-06-22T10:25:48;27.20;99.90
6098;DHT22;3077;50.922;6.584;2023-06-22T10:28:14;27.00;99.90
6098;DHT22;3077;50.922;6.584;2023-06-22T10:30:40;26.60;99.90
6098;DHT22;3077;50.922;6.584;2023-06-22T10:33:10;26.40;99.90
6098;DHT22;3077;50.922;6.584;2023-06-22T10:35:36;26.10;99.90
6098;DHT22;3077;50.922;6.584;2023-06-22T10:38:03;25.70;99.90
6098;DHT22;3077;50.922;6.584;2023-06-22T10:40:29;25.60;99.90
6098;DHT22;3077;50.922;6.584;2023-06-22T10:42:55;25.30;99.90
6098;DHT22;3077;50.922;6.584;2023-06-22T10:45:20;25.10;99.90
6098;DHT22;3077;50.922;6.584;2023-06-22T10:47:46;25.00;99.90
6098;DHT22;3077;50.922;6.584;2023-06-22T10:50:12;24.90;99.90
6098;DHT22;3077;50.922;6.584;2023-06-22T10:52:38;24.80;99.90
6098;DHT22;3077;50.922;6.584;2023-06-22T10:55:04;24.80;99.90
6098;DHT22;3077;50.922;6.584;2023-06-22T10:57:30;24.60;99.90
6098;DHT22;3077;50.922;6.584;2023-06-22T10:59:56;24.50;99.90
6098;DHT22;3077;50.922;6.584;2023-06-22T11:02:21;24.30;99.90
6098;DHT22;3077;50.922;6.584;2023-06-22T11:04:47;24.30;99.90
6098;DHT22;3077;50.922;6.584;2023-06-22T11:07:13;24.30;99.90
6098;DHT22;3077;50.922;6.584;2023-06-22T11:09:39;24.30;99.90
6098;DHT22;3077;50.922;6.584;2023-06-22T11:12:05;24.30;99.90
6098;DHT22;3077;50.922;6.584;2023-06-22T11:14:31;24.30;99.90
6098;DHT22;3077;50.922;6.584;2023-06-22T11:16:59;24.30;99.90
6098;DHT22;3077;50.922;6.584;2023-06-22T11:19:24;24.30;99.90
6098;DHT22;3077;50.922;6.584;2023-06-22T11:21:50;24.30;99.90
6098;DHT22;3077;50.922;6.584;2023-06-22T11:24:16;24.40;99.90
6098;DHT22;3077;50.922;6.584;2023-06-22T11:26:42;24.50;99.90
6098;DHT22;3077;50.922;6.584;2023-06-22T11:29:08;24.60;99.90
6098;DHT22;3077;50.922;6.584;2023-06-22T11:31:34;24.90;99.90
6098;DHT22;3077;50.922;6.584;2023-06-22T11:34:00;25.30;99.90
6098;DHT22;3077;50.922;6.584;2023-06-22T11:36:26;25.70;99.90
6098;DHT22;3077;50.922;6.584;2023-06-22T11:38:52;26.20;99.90
6098;DHT22;3077;50.922;6.584;2023-06-22T11:41:18;26.60;99.90
6098;DHT22;3077;50.922;6.584;2023-06-22T11:43:44;27.00;99.90
6098;DHT22;3077;50.922;6.584;2023-06-22T11:46:10;27.40;99.90
6098;DHT22;3077;50.922;6.584;2023-06-22T11:48:35;27.60;99.90
6098;DHT22;3077;50.922;6.584;2023-06-22T11:51:02;27.60;99.90
6098;DHT22;3077;50.922;6.584;2023-06-22T11:53:28;27.60;99.90
6098;DHT22;3077;50.922;6.584;2023-06-22T11:55:54;27.50;99.90
6098;DHT22;3077;50.922;6.584;2023-06-22T11:58:20;27.50;99.90
6098;DHT22;3077;50.922;6.584;2023-06-22T12:00:47;27.50;99.90
6098;DHT22;3077;50.922;6.584;2023-06-22T12:03:12;27.60;99.90
6098;DHT22;3077;50.922;6.584;2023-06-22T12:05:40;27.70;99.90
6098;DHT22;3077;50.922;6.584;2023-06-22T12:08:06;27.80;99.90
6098;DHT22;3077;50.922;6.584;2023-06-22T12:10:31;27.90;99.90
6098;DHT22;3077;50.922;6.584;2023-06-22T12:12:57;28.10;99.90
6098;DHT22;3077;50.922;6.584;2023-06-22T12:15:25;28.20;99.90
6098;DHT22;3077;50.922;6.584;2023-06-22T12:17:50;28.30;99.90
6098;DHT22;3077;50.922;6.584;2023-06-22T12:20:16;28.40;99.90
6098;DHT22;3077;50.922;6.584;2023-06-22T12:22:41;28.50;99.90
6098;DHT22;3077;50.922;6.584;2023-06-22T12:25:08;28.60;99.90
6098;DHT22;3077;50.922;6.584;2023-06-22T12:27:34;28.80;99.90
6098;DHT22;3077;50.922;6.584;2023-06-22T12:30:00;28.80;99.90
6098;DHT22;3077;50.922;6.584;2023-06-22T12:32:26;28.80;99.90
6098;DHT22;3077;50.922;6.584;2023-06-22T12:34:52;28.60;99.90
6098;DHT22;3077;50.922;6.584;2023-06-22T12:37:17;28.40;99.90
6098;DHT22;3077;50.922;6.584;2023-06-22T12:39:43;28.30;99.90
6098;DHT22;3077;50.922;6.584;2023-06-22T12:42:09;28.30;99.90
6098;DHT22;3077;50.922;6.584;2023-06-22T12:44:35;28.20;99.90
6098;DHT22;3077;50.922;6.584;2023-06-22T12:47:01;28.30;99.90
6098;DHT22;3077;50.922;6.584;2023-06-22T12:49:26;28.30;99.90
6098;DHT22;3077;50.922;6.584;2023-06-22T12:51:52;28.40;99.90
6098;DHT22;3077;50.922;6.584;2023-06-22T12:54:18;28.70;99.90
6098;DHT22;3077;50.922;6.584;2023-06-22T12:56:43;29.20;99.90
6098;DHT22;3077;50.922;6.584;2023-06-22T12:59:10;29.30;99.90
6098;DHT22;3077;50.922;6.584;2023-06-22T13:01:36;29.40;99.90
6098;DHT22;3077;50.922;6.584;2023-06-22T13:04:02;29.40;99.90
6098;DHT22;3077;50.922;6.584;2023-06-22T13:06:28;29.20;99.90
6098;DHT22;3077;50.922;6.584;2023-06-22T13:08:54;28.90;99.90
6098;DHT22;3077;50.922;6.584;2023-06-22T13:11:19;28.70;99.90
6098;DHT22;3077;50.922;6.584;2023-06-22T13:13:45;28.60;99.90
6098;DHT22;3077;50.922;6.584;2023-06-22T13:16:12;28.70;99.90
6098;DHT22;3077;50.922;6.584;2023-06-22T13:18:37;28.60;99.90
6098;DHT22;3077;50.922;6.584;2023-06-22T13:21:03;28.60;99.90
6098;DHT22;3077;50.922;6.584;2023-06-22T13:23:29;28.60;99.90
6098;DHT22;3077;50.922;6.584;2023-06-22T13:25:54;28.70;99.90
6098;DHT22;3077;50.922;6.584;2023-06-22T13:28:20;28.70;99.90
6098;DHT22;3077;50.922;6.584;2023-06-22T13:30:46;28.60;99.90
6098;DHT22;3077;50.922;6.584;2023-06-22T13:33:13;28.50;99.90
6098;DHT22;3077;50.922;6.584;2023-06-22T13:35:39;28.40;99.90
6098;DHT22;3077;50.922;6.584;2023-06-22T13:38:05;28.10;99.90
6098;DHT22;3077;50.922;6.584;2023-06-22T13:40:30;28.00;99.90
6098;DHT22;3077;50.922;6.584;2023-06-22T13:42:56;28.30;99.90
6098;DHT22;3077;50.922;6.584;2023-06-22T13:45:22;28.80;99.90
6098;DHT22;3077;50.922;6.584;2023-06-22T13:47:48;29.30;99.90
6098;DHT22;3077;50.922;6.584;2023-06-22T13:50:13;30.00;99.90
6098;DHT22;3077;50.922;6.584;2023-06-22T13:52:39;30.50;99.90
6098;DHT22;3077;50.922;6.584;2023-06-22T13:55:06;30.90;99.90
6098;DHT22;3077;50.922;6.584;2023-06-22T13:57:32;31.30;99.90
6098;DHT22;3077;50.922;6.584;2023-06-22T13:59:58;31.50;99.90
6098;DHT22;3077;50.922;6.584;2023-06-22T14:02:23;31.40;99.90
6098;DHT22;3077;50.922;6.584;2023-06-22T14:04:49;31.10;99.90
6098;DHT22;3077;50.922;6.584;2023-06-22T14:07:14;30.70;99.90
6098;DHT22;3077;50.922;6.584;2023-06-22T14:09:40;30.30;99.90
6098;DHT22;3077;50.922;6.584;2023-06-22T14:12:06;29.70;99.90
6098;DHT22;3077;50.922;6.584;2023-06-22T14:14:33;29.30;99.90
6098;DHT22;3077;50.922;6.584;2023-06-22T14:16:59;28.90;99.90
6098;DHT22;3077;50.922;6.584;2023-06-22T14:19:24;28.40;99.90
6098;DHT22;3077;50.922;6.584;2023-06-22T14:21:50;28.20;99.90
6098;DHT22;3077;50.922;6.584;2023-06-22T14:24:16;28.20;99.90
6098;DHT22;3077;50.922;6.584;2023-06-22T14:26:41;28.20;99.90
6098;DHT22;3077;50.922;6.584;2023-06-22T14:29:07;28.20;99.90
6098;DHT22;3077;50.922;6.584;2023-06-22T14:31:32;27.90;99.90
6098;DHT22;3077;50.922;6.584;2023-06-22T14:33:58;27.70;99.90
6098;DHT22;3077;50.922;6.584;2023-06-22T14:36:24;27.50;99.90
6098;DHT22;3077;50.922;6.584;2023-06-22T14:38:49;27.50;99.90
6098;DHT22;3077;50.922;6.584;2023-06-22T14:41:15;27.40;99.90
6098;DHT22;3077;50.922;6.584;2023-06-22T14:43:47;27.30;99.90
6098;DHT22;3077;50.922;6.584;2023-06-22T14:46:17;27.20;99.90
6098;DHT22;3077;50.922;6.584;2023-06-22T14:48:43;27.10;99.90
6098;DHT22;3077;50.922;6.584;2023-06-22T14:51:09;26.90;99.90
6098;DHT22;3077;50.922;6.584;2023-06-22T14:53:35;26.80;99.90
6098;DHT22;3077;50.922;6.584;2023-06-22T14:56:01;26.70;99.90
6098;DHT22;3077;50.922;6.584;2023-06-22T14:58:28;26.60;99.90
6098;DHT22;3077;50.922;6.584;2023-06-22T15:00:55;26.50;99.90
6098;DHT22;3077;50.922;6.584;2023-06-22T15:03:20;26.40;99.90
6098;DHT22;3077;50.922;6.584;2023-06-22T15:05:50;26.30;99.90
6098;DHT22;3077;50.922;6.584;2023-06-22T15:08:16;26.00;99.90
6098;DHT22;3077;50.922;6.584;2023-06-22T15:10:42;25.90;99.90
6098;DHT22;3077;50.922;6.584;2023-06-22T15:13:07;25.70;99.90
6098;DHT22;3077;50.922;6.584;2023-06-22T15:15:33;25.70;99.90
6098;DHT22;3077;50.922;6.584;2023-06-22T15:17:59;25.60;99.90
6098;DHT22;3077;50.922;6.584;2023-06-22T15:20:24;25.50;99.90
6098;DHT22;3077;50.922;6.584;2023-06-22T15:22:50;25.30;99.90
6098;DHT22;3077;50.922;6.584;2023-06-22T15:25:16;24.90;99.90
6098;DHT22;3077;50.922;6.584;2023-06-22T15:27:42;24.80;99.90
6098;DHT22;3077;50.922;6.584;2023-06-22T15:30:08;24.80;99.90
6098;DHT22;3077;50.922;6.584;2023-06-22T15:32:33;24.80;99.90
6098;DHT22;3077;50.922;6.584;2023-06-22T15:34:59;24.60;99.90
6098;DHT22;3077;50.922;6.584;2023-06-22T15:37:25;24.50;99.90
6098;DHT22;3077;50.922;6.584;2023-06-22T15:39:50;24.40;99.90
6098;DHT22;3077;50.922;6.584;2023-06-22T15:42:16;24.40;99.90
6098;DHT22;3077;50.922;6.584;2023-06-22T15:44:42;24.30;99.90
6098;DHT22;3077;50.922;6.584;2023-06-22T15:47:07;24.20;99.90
6098;DHT22;3077;50.922;6.584;2023-06-22T15:49:33;24.20;99.90
6098;DHT22;3077;50.922;6.584;2023-06-22T15:51:58;24.00;99.90
6098;DHT22;3077;50.922;6.584;2023-06-22T15:54:24;23.90;99.90
6098;DHT22;3077;50.922;6.584;2023-06-22T15:56:49;23.60;99.90
6098;DHT22;3077;50.922;6.584;2023-06-22T15:59:15;23.40;99.90
6098;DHT22;3077;50.922;6.584;2023-06-22T16:01:41;23.30;99.90
6098;DHT22;3077;50.922;6.584;2023-06-22T16:04:06;23.10;99.90
6098;DHT22;3077;50.922;6.584;2023-06-22T16:06:32;23.00;99.90